Time;durP1;ratioP1;P1;durP2;ratioP2;P2;SDS_P1;SDS_P2;PMS_P1;PMS_P2;Temp;Humidity;BMP_temperature;BMP_pressure;BME280_temperature;BME280_humidity;BME280_pressure;Samples;Min_cycle;Max_cycle;Signal;HPM_P1;HPM_P2
2021/05/09 00:00:23;;;;;;;1.90;1.20;;;17.10;99.90;;;;;;5030389;28;20037;-86
2021/05/09 00:02:49;;;;;;;3.15;1.20;;;17.00;99.90;;;;;;5031799;28;20053;-85
2021/05/09 00:05:15;;;;;;;1.88;1.50;;;17.00;99.90;;;;;;5031354;28;20072;-85
2021/05/09 00:07:40;;;;;;;1.55;1.30;;;17.10;99.90;;;;;;5031512;28;20489;-86
2021/05/09 00:10:09;;;;;;;3.75;1.40;;;17.10;99.90;;;;;;5033169;28;20037;-86
2021/05/09 00:12:35;;;;;;;3.03;1.52;;;17.10;99.90;;;;;;5030477;28;20022;-86
2021/05/09 00:15:00;;;;;;;3.67;1.30;;;17.10;99.90;;;;;;5031273;28;20029;-86
2021/05/09 00:17:26;;;;;;;2.35;1.30;;;17.00;99.90;;;;;;5030209;28;20030;-86
2021/05/09 00:19:51;;;;;;;1.95;1.20;;;16.90;99.90;;;;;;5031243;28;20113;-86
2021/05/09 00:22:17;;;;;;;1.55;1.20;;;17.10;99.90;;;;;;5032091;28;20079;-86
2021/05/09 00:24:43;;;;;;;2.42;1.30;;;16.90;99.90;;;;;;5033025;28;20028;-85
2021/05/09 00:27:08;;;;;;;1.92;1.10;;;16.90;99.90;;;;;;5030370;28;20033;-86
2021/05/09 00:29:34;;;;;;;5.35;3.58;;;16.80;99.90;;;;;;5030703;28;20061;-86
2021/05/09 00:31:59;;;;;;;4.07;1.40;;;16.90;99.90;;;;;;5029616;28;20087;-85
2021/05/09 00:34:25;;;;;;;1.50;1.40;;;16.80;99.90;;;;;;5030782;28;20026;-85
2021/05/09 00:36:50;;;;;;;3.63;1.30;;;17.00;99.90;;;;;;5031613;28;20545;-86
2021/05/09 00:39:16;;;;;;;2.22;1.48;;;17.00;99.90;;;;;;5031214;28;20070;-86
2021/05/09 00:41:42;;;;;;;4.50;2.47;;;16.90;99.90;;;;;;5030057;28;20549;-86
2021/05/09 00:44:08;;;;;;;1.52;1.20;;;16.70;99.90;;;;;;5030754;28;20075;-85
2021/05/09 00:46:33;;;;;;;1.80;1.50;;;16.60;99.90;;;;;;5015291;28;20413;-85
2021/05/09 00:49:01;;;;;;;1.98;1.40;;;16.90;99.90;;;;;;5032704;28;20017;-86
2021/05/09 00:51:27;;;;;;;2.33;1.27;;;16.80;99.90;;;;;;5030477;28;20501;-85
2021/05/09 00:53:56;;;;;;;3.13;1.55;;;16.60;99.90;;;;;;5030826;28;20025;-86
2021/05/09 00:56:25;;;;;;;2.28;1.50;;;16.80;99.90;;;;;;5030496;28;20120;-85
2021/05/09 00:58:53;;;;;;;2.00;1.30;;;16.50;99.90;;;;;;5030250;28;20036;-86
2021/05/09 01:01:19;;;;;;;3.92;1.40;;;16.70;99.90;;;;;;5030872;28;20125;-86
2021/05/09 01:03:46;;;;;;;2.00;1.27;;;16.40;99.90;;;;;;5030806;28;20022;-85
2021/05/09 01:06:12;;;;;;;2.42;1.30;;;16.40;99.90;;;;;;5030095;28;20107;-85
2021/05/09 01:08:38;;;;;;;2.50;1.67;;;16.40;99.90;;;;;;5030280;28;20037;-86
2021/05/09 01:11:04;;;;;;;2.00;1.30;;;16.40;99.90;;;;;;5028623;28;20463;-86
2021/05/09 01:13:31;;;;;;;1.40;1.30;;;16.80;99.90;;;;;;5030476;28;20022;-85
2021/05/09 01:15:57;;;;;;;1.90;1.30;;;16.40;99.90;;;;;;5032989;28;20513;-86
2021/05/09 01:18:23;;;;;;;2.75;1.30;;;16.60;99.90;;;;;;5030620;28;20557;-85
2021/05/09 01:20:48;;;;;;;1.45;1.30;;;16.30;99.90;;;;;;5030245;28;20108;-86
2021/05/09 01:23:14;;;;;;;1.65;1.40;;;16.70;99.90;;;;;;5030624;28;20022;-85
2021/05/09 01:25:40;;;;;;;1.75;1.15;;;16.30;99.90;;;;;;5029705;28;20060;-85
2021/05/09 01:28:06;;;;;;;2.67;1.42;;;16.30;99.90;;;;;;5031831;28;20025;-85
2021/05/09 01:30:31;;;;;;;2.28;1.30;;;16.50;99.90;;;;;;5029029;28;20049;-86
2021/05/09 01:32:57;;;;;;;3.17;1.45;;;16.30;99.90;;;;;;5029959;28;20083;-85
2021/05/09 01:35:23;;;;;;;2.60;1.30;;;16.30;99.90;;;;;;5028903;28;20410;-85
2021/05/09 01:37:48;;;;;;;1.98;1.35;;;16.20;99.90;;;;;;5030216;28;20037;-85
2021/05/09 01:40:15;;;;;;;1.20;1.10;;;16.40;99.90;;;;;;5030800;28;20061;-85
2021/05/09 01:42:41;;;;;;;2.92;1.60;;;16.20;99.90;;;;;;5031397;28;20021;-85
2021/05/09 01:45:08;;;;;;;1.85;1.23;;;16.40;99.90;;;;;;5029953;28;20056;-86
2021/05/09 01:47:36;;;;;;;2.50;1.10;;;16.00;99.90;;;;;;5028509;28;20033;-85
2021/05/09 01:50:05;;;;;;;3.38;1.42;;;16.40;99.90;;;;;;5028515;28;20033;-85
2021/05/09 01:52:31;;;;;;;2.85;1.40;;;16.00;99.90;;;;;;5030069;28;20036;-86
2021/05/09 01:54:56;;;;;;;2.70;1.40;;;15.90;99.90;;;;;;5034081;28;20026;-85
2021/05/09 01:57:22;;;;;;;2.40;1.40;;;16.10;99.90;;;;;;5033660;28;20453;-86
2021/05/09 01:59:47;;;;;;;1.45;1.30;;;15.90;99.90;;;;;;5033807;28;20029;-85
2021/05/09 02:02:13;;;;;;;2.85;1.75;;;15.90;99.90;;;;;;5031589;28;20040;-85
2021/05/09 02:04:39;;;;;;;2.25;1.52;;;16.10;99.90;;;;;;5033320;28;20080;-86
2021/05/09 02:07:04;;;;;;;3.60;1.33;;;15.80;99.90;;;;;;5035773;28;20410;-85
2021/05/09 02:09:30;;;;;;;2.35;1.38;;;15.80;99.90;;;;;;5032369;28;20101;-85
2021/05/09 02:11:55;;;;;;;3.22;1.60;;;16.20;99.90;;;;;;5033365;28;20030;-85
2021/05/09 02:14:21;;;;;;;1.95;1.40;;;15.80;99.90;;;;;;5033835;28;20036;-85
2021/05/09 02:16:46;;;;;;;3.15;1.40;;;15.80;99.90;;;;;;5033512;28;20551;-85
2021/05/09 02:19:12;;;;;;;1.45;1.30;;;16.00;99.90;;;;;;5035138;28;20025;-86
2021/05/09 02:21:38;;;;;;;2.55;1.50;;;15.70;99.90;;;;;;5033835;28;20064;-85
2021/05/09 02:24:04;;;;;;;3.88;1.40;;;15.70;99.90;;;;;;5033038;28;20394;-85
2021/05/09 02:26:29;;;;;;;4.00;1.20;;;15.70;99.90;;;;;;5033375;28;20111;-85
2021/05/09 02:28:55;;;;;;;1.73;1.55;;;16.00;99.90;;;;;;5031755;28;20073;-86
2021/05/09 02:31:20;;;;;;;3.83;1.45;;;15.70;99.90;;;;;;5033402;28;20026;-85
2021/05/09 02:33:46;;;;;;;4.47;1.80;;;15.80;99.90;;;;;;5035263;28;20652;-85
2021/05/09 02:36:12;;;;;;;3.92;1.42;;;16.00;99.90;;;;;;5033115;28;20039;-85
2021/05/09 02:38:37;;;;;;;5.03;1.80;;;15.70;99.90;;;;;;5032345;28;20033;-85
2021/05/09 02:41:03;;;;;;;3.45;1.45;;;15.70;99.90;;;;;;5031829;28;20029;-85
2021/05/09 02:43:29;;;;;;;2.35;1.42;;;15.70;99.90;;;;;;5032984;28;20040;-85
2021/05/09 02:45:54;;;;;;;1.50;1.40;;;15.70;99.90;;;;;;5035029;28;20033;-85
2021/05/09 02:48:20;;;;;;;3.15;1.50;;;15.60;99.90;;;;;;5033050;28;20407;-85
2021/05/09 02:50:46;;;;;;;2.05;1.60;;;15.60;99.90;;;;;;5032815;28;20052;-85
2021/05/09 02:53:11;;;;;;;2.50;1.70;;;15.90;99.90;;;;;;5032222;28;20069;-85
2021/05/09 02:55:37;;;;;;;2.13;1.80;;;15.60;99.90;;;;;;5031782;28;20018;-85
2021/05/09 02:58:02;;;;;;;3.33;1.58;;;15.60;99.90;;;;;;5033537;28;20029;-85
2021/05/09 03:00:28;;;;;;;4.38;1.80;;;15.60;99.90;;;;;;5032620;28;20036;-85
2021/05/09 03:02:53;;;;;;;2.20;1.40;;;15.50;99.90;;;;;;5031161;28;20462;-86
2021/05/09 03:05:19;;;;;;;2.58;1.52;;;15.50;99.90;;;;;;5032554;28;20047;-86
2021/05/09 03:07:44;;;;;;;4.20;1.60;;;15.50;99.90;;;;;;5032799;28;20033;-85
2021/05/09 03:10:11;;;;;;;2.45;1.33;;;15.60;99.90;;;;;;5033853;28;20495;-85
2021/05/09 03:12:36;;;;;;;2.33;1.80;;;15.50;99.90;;;;;;5033291;28;20021;-86
2021/05/09 03:15:03;;;;;;;1.65;1.23;;;15.90;99.90;;;;;;5030760;28;20483;-85
2021/05/09 03:17:28;;;;;;;7.20;1.60;;;15.50;99.90;;;;;;5032169;28;20041;-85
2021/05/09 03:19:54;;;;;;;4.40;1.60;;;15.50;99.90;;;;;;5031876;28;20022;-85
2021/05/09 03:22:20;;;;;;;2.35;1.40;;;15.90;99.90;;;;;;5033235;28;20544;-85
2021/05/09 03:24:45;;;;;;;3.83;1.60;;;15.60;99.90;;;;;;5032352;28;20478;-85
2021/05/09 03:27:11;;;;;;;2.60;1.60;;;15.80;99.90;;;;;;5031519;28;20048;-85
2021/05/09 03:29:36;;;;;;;3.97;1.90;;;15.60;99.90;;;;;;5032440;28;20483;-85
2021/05/09 03:32:02;;;;;;;3.15;1.60;;;15.70;99.90;;;;;;5032078;28;20056;-85
2021/05/09 03:34:28;;;;;;;3.55;1.92;;;15.50;99.90;;;;;;5031156;28;20026;-85
2021/05/09 03:36:53;;;;;;;4.30;1.77;;;15.80;99.90;;;;;;5028847;28;20066;-85
2021/05/09 03:39:20;;;;;;;2.03;1.20;;;15.90;99.90;;;;;;5031717;28;20037;-86
2021/05/09 03:41:46;;;;;;;3.15;1.60;;;15.50;99.90;;;;;;5030249;28;20029;-85
2021/05/09 03:44:11;;;;;;;2.15;1.23;;;15.80;99.90;;;;;;5030042;28;20041;-85
2021/05/09 03:46:37;;;;;;;4.82;2.13;;;15.80;99.90;;;;;;5029923;28;20151;-85
2021/05/09 03:49:03;;;;;;;2.80;1.80;;;15.50;99.90;;;;;;5029606;28;20497;-85
2021/05/09 03:51:28;;;;;;;1.95;1.38;;;15.40;99.90;;;;;;5029888;28;20067;-85
2021/05/09 03:53:54;;;;;;;3.03;1.40;;;15.50;99.90;;;;;;5031908;28;20071;-85
2021/05/09 03:56:19;;;;;;;2.45;1.73;;;15.80;99.90;;;;;;5031777;28;20032;-85
2021/05/09 03:58:45;;;;;;;3.95;1.80;;;15.50;99.90;;;;;;5031545;28;20533;-85
2021/05/09 04:01:10;;;;;;;1.85;1.55;;;15.50;99.90;;;;;;5033164;28;20108;-85
2021/05/09 04:03:36;;;;;;;3.28;1.50;;;15.70;99.90;;;;;;5031456;28;20025;-85
2021/05/09 04:06:02;;;;;;;2.10;1.65;;;15.60;99.90;;;;;;5031313;28;20045;-85
2021/05/09 04:08:28;;;;;;;1.90;1.65;;;15.60;99.90;;;;;;5031729;28;20076;-85
2021/05/09 04:10:56;;;;;;;4.80;1.75;;;15.50;99.90;;;;;;5031255;28;20099;-85
2021/05/09 04:13:22;;;;;;;4.05;1.90;;;15.30;99.90;;;;;;5031208;28;20040;-85
2021/05/09 04:15:48;;;;;;;3.42;1.80;;;15.60;99.90;;;;;;5033294;28;20525;-85
2021/05/09 04:18:14;;;;;;;2.83;1.70;;;15.30;99.90;;;;;;5029963;28;20128;-85
2021/05/09 04:20:39;;;;;;;3.85;1.80;;;15.60;99.90;;;;;;5030028;28;20039;-85
2021/05/09 04:23:15;;;;;;;2.38;1.80;;;15.30;99.90;;;;;;5031063;28;20033;-84
2021/05/09 04:25:46;;;;;;;3.28;1.80;;;15.20;99.90;;;;;;5014441;28;20083;-85
2021/05/09 04:28:11;;;;;;;3.83;1.73;;;15.20;99.90;;;;;;5032815;28;20573;-85
2021/05/09 04:30:37;;;;;;;1.98;1.48;;;15.50;99.90;;;;;;5031946;28;20069;-85
2021/05/09 04:33:05;;;;;;;4.00;1.60;;;15.20;99.90;;;;;;5030104;28;20100;-85
2021/05/09 04:35:32;;;;;;;5.35;1.70;;;15.30;99.90;;;;;;5030869;28;20017;-85
2021/05/09 04:37:58;;;;;;;3.47;1.50;;;15.50;99.90;;;;;;5030846;28;20059;-85
2021/05/09 04:40:24;;;;;;;4.28;1.70;;;15.30;99.90;;;;;;5031025;28;20026;-85
2021/05/09 04:42:50;;;;;;;3.15;1.60;;;15.50;99.90;;;;;;5032935;28;20102;-85
2021/05/09 04:45:16;;;;;;;2.90;1.65;;;15.40;99.90;;;;;;5030441;28;20087;-85
2021/05/09 04:47:42;;;;;;;2.25;1.73;;;15.60;99.90;;;;;;5030087;28;20061;-85
2021/05/09 04:50:09;;;;;;;2.85;1.35;;;15.90;99.90;;;;;;5030807;28;20053;-85
2021/05/09 04:52:35;;;;;;;3.13;1.50;;;15.80;99.90;;;;;;5014292;28;20556;-85
2021/05/09 04:55:01;;;;;;;4.72;2.05;;;15.80;99.90;;;;;;5032817;28;20026;-89
2021/05/09 04:57:26;;;;;;;4.75;1.60;;;15.90;99.90;;;;;;5029912;28;20490;-83
2021/05/09 04:59:52;;;;;;;3.50;1.73;;;15.90;99.90;;;;;;5030176;28;20025;-87
2021/05/09 05:02:17;;;;;;;4.45;1.83;;;16.20;99.90;;;;;;5030547;28;20056;-87
2021/05/09 05:04:43;;;;;;;2.95;1.55;;;16.00;99.90;;;;;;5029387;28;20100;-87
2021/05/09 05:07:09;;;;;;;2.90;1.85;;;16.10;99.90;;;;;;5031727;28;20025;-87
2021/05/09 05:09:34;;;;;;;1.52;1.40;;;16.10;99.90;;;;;;5029610;28;20024;-85
2021/05/09 05:12:00;;;;;;;2.03;1.42;;;16.40;99.90;;;;;;5029459;28;20498;-84
2021/05/09 05:14:26;;;;;;;2.40;1.60;;;16.20;99.90;;;;;;5030276;28;20104;-84
2021/05/09 05:16:52;;;;;;;3.65;1.77;;;16.20;99.90;;;;;;5029283;28;20021;-85
2021/05/09 05:19:18;;;;;;;2.40;1.50;;;16.30;99.90;;;;;;5030306;28;20025;-85
2021/05/09 05:21:43;;;;;;;3.25;1.45;;;16.20;99.90;;;;;;5031205;28;20026;-82
2021/05/09 05:24:09;;;;;;;3.22;1.85;;;16.20;99.90;;;;;;5027435;28;20021;-83
2021/05/09 05:26:35;;;;;;;3.80;1.73;;;16.20;99.90;;;;;;5029732;28;20037;-82
2021/05/09 05:29:00;;;;;;;2.55;1.60;;;16.20;99.90;;;;;;5030698;28;20024;-84
2021/05/09 05:31:26;;;;;;;5.57;1.90;;;16.50;99.90;;;;;;5034240;28;20495;-83
2021/05/09 05:33:52;;;;;;;3.58;2.00;;;16.20;99.90;;;;;;5034381;28;20046;-84
2021/05/09 05:36:17;;;;;;;2.05;1.77;;;16.20;99.90;;;;;;5034281;28;20041;-85
2021/05/09 05:38:44;;;;;;;5.57;1.80;;;16.60;99.90;;;;;;5034216;28;20112;-86
2021/05/09 05:41:10;;;;;;;2.90;1.63;;;16.50;99.90;;;;;;5034700;28;20076;-85
2021/05/09 05:43:35;;;;;;;4.30;1.83;;;16.60;99.90;;;;;;5032797;28;20075;-85
2021/05/09 05:46:03;;;;;;;5.65;1.83;;;16.50;99.90;;;;;;5031003;28;20025;-85
2021/05/09 05:48:29;;;;;;;4.10;1.60;;;16.50;99.90;;;;;;5034413;28;20124;-85
2021/05/09 05:50:55;;;;;;;4.60;1.90;;;16.70;99.90;;;;;;5033496;28;20021;-85
2021/05/09 05:53:23;;;;;;;3.85;1.67;;;16.50;99.90;;;;;;5033295;28;20043;-85
2021/05/09 05:55:50;;;;;;;5.85;1.80;;;16.50;99.90;;;;;;5034702;28;20030;-86
2021/05/09 05:58:18;;;;;;;3.60;1.70;;;16.40;99.90;;;;;;5034935;28;20037;-85
2021/05/09 06:00:45;;;;;;;3.20;1.80;;;16.50;99.90;;;;;;5032998;28;20018;-85
2021/05/09 06:03:11;;;;;;;3.45;1.77;;;16.60;99.90;;;;;;5033477;28;20040;-85
2021/05/09 06:05:37;;;;;;;4.38;1.80;;;16.80;99.90;;;;;;5033905;28;20450;-85
2021/05/09 06:08:04;;;;;;;2.92;1.75;;;16.50;99.90;;;;;;5034250;28;20029;-85
2021/05/09 06:10:29;;;;;;;4.70;1.80;;;16.60;99.90;;;;;;5032454;28;20076;-85
2021/05/09 06:12:56;;;;;;;2.28;1.67;;;16.60;99.90;;;;;;5034602;28;20021;-86
2021/05/09 06:15:22;;;;;;;4.20;1.83;;;16.70;99.90;;;;;;5033565;28;20044;-85
2021/05/09 06:17:47;;;;;;;2.63;1.80;;;16.80;99.90;;;;;;5033509;28;20478;-85
2021/05/09 06:20:13;;;;;;;3.95;1.77;;;16.80;99.90;;;;;;5033374;28;20026;-86
2021/05/09 06:22:39;;;;;;;3.97;1.77;;;16.80;99.90;;;;;;5033146;28;20495;-85
2021/05/09 06:25:06;;;;;;;2.53;1.88;;;16.70;99.90;;;;;;5035789;28;20053;-85
2021/05/09 06:27:32;;;;;;;3.67;1.67;;;16.80;99.90;;;;;;5032365;28;20486;-86
2021/05/09 06:29:57;;;;;;;2.70;2.15;;;16.90;99.90;;;;;;5031171;28;20152;-85
2021/05/09 06:32:23;;;;;;;6.10;3.13;;;16.90;99.90;;;;;;5033026;28;20092;-86
2021/05/09 06:34:48;;;;;;;3.95;1.90;;;17.10;99.90;;;;;;5033446;28;20494;-85
2021/05/09 06:37:14;;;;;;;2.42;1.50;;;17.10;99.90;;;;;;5034087;28;20026;-86
2021/05/09 06:39:40;;;;;;;4.00;1.88;;;17.20;99.90;;;;;;5033637;28;20022;-85
2021/05/09 06:42:07;;;;;;;3.53;1.80;;;17.20;99.90;;;;;;5032446;28;20112;-86
2021/05/09 06:44:36;;;;;;;3.30;1.88;;;17.30;99.90;;;;;;5032728;28;20024;-86
2021/05/09 06:47:03;;;;;;;3.15;1.92;;;17.60;99.90;;;;;;5033112;28;20037;-85
2021/05/09 06:49:29;;;;;;;2.88;1.70;;;17.60;99.90;;;;;;5032916;28;20080;-85
2021/05/09 06:51:56;;;;;;;5.82;1.60;;;17.70;99.90;;;;;;5034594;28;20038;-86
2021/05/09 06:54:22;;;;;;;3.10;1.90;;;17.80;99.90;;;;;;5031331;28;20021;-85
2021/05/09 06:56:51;;;;;;;4.28;1.75;;;18.40;99.90;;;;;;5032203;28;20033;-84
2021/05/09 06:59:17;;;;;;;4.68;1.70;;;18.20;99.90;;;;;;5032520;28;20030;-85
2021/05/09 07:01:43;;;;;;;4.07;1.85;;;18.20;99.90;;;;;;5031552;28;20025;-85
2021/05/09 07:04:09;;;;;;;3.53;1.95;;;18.30;99.90;;;;;;5034410;28;20064;-85
2021/05/09 07:06:35;;;;;;;2.50;1.80;;;18.50;99.90;;;;;;5033357;28;20562;-86
2021/05/09 07:09:06;;;;;;;4.43;2.05;;;18.70;99.90;;;;;;5032406;28;20075;-85
2021/05/09 07:11:33;;;;;;;2.40;1.77;;;19.00;99.90;;;;;;5030366;28;20033;-85
2021/05/09 07:13:58;;;;;;;3.08;1.70;;;19.10;99.90;;;;;;5032713;28;20108;-86
2021/05/09 07:16:25;;;;;;;2.85;1.88;;;19.30;99.90;;;;;;5031142;28;20121;-86
2021/05/09 07:18:51;;;;;;;4.10;2.10;;;19.30;99.90;;;;;;5034201;28;20026;-85
2021/05/09 07:21:22;;;;;;;4.20;1.92;;;19.40;99.90;;;;;;5032775;28;20045;-87
2021/05/09 07:23:48;;;;;;;3.28;1.80;;;19.60;99.90;;;;;;5032624;28;20059;-86
2021/05/09 07:26:15;;;;;;;3.53;1.95;;;19.80;99.90;;;;;;5029318;28;20041;-86
2021/05/09 07:28:41;;;;;;;2.72;1.80;;;20.00;99.90;;;;;;5031385;28;20518;-86
2021/05/09 07:31:06;;;;;;;2.83;2.03;;;19.90;99.90;;;;;;5034089;28;20124;-86
2021/05/09 07:33:33;;;;;;;3.17;1.63;;;19.90;99.90;;;;;;5030517;28;20406;-86
2021/05/09 07:35:58;;;;;;;4.47;1.88;;;19.90;99.90;;;;;;5032037;28;20107;-85
2021/05/09 07:38:24;;;;;;;3.25;1.60;;;20.00;99.90;;;;;;5032139;28;20037;-86
2021/05/09 07:40:50;;;;;;;3.30;1.63;;;20.10;99.90;;;;;;5030237;28;20041;-86
2021/05/09 07:43:16;;;;;;;6.53;2.00;;;20.10;99.90;;;;;;5032836;28;20041;-86
2021/05/09 07:45:43;;;;;;;2.28;1.40;;;20.20;99.90;;;;;;5034456;28;20070;-85
2021/05/09 07:48:09;;;;;;;3.97;1.83;;;20.30;99.90;;;;;;5031707;28;20041;-86
2021/05/09 07:50:36;;;;;;;2.50;1.58;;;20.30;99.90;;;;;;5031952;28;20029;-86
2021/05/09 07:53:03;;;;;;;3.78;1.92;;;20.30;99.90;;;;;;5030949;28;20021;-86
2021/05/09 07:55:28;;;;;;;6.18;1.90;;;20.30;99.90;;;;;;5031202;28;20061;-86
2021/05/09 07:57:54;;;;;;;3.65;1.83;;;20.40;99.90;;;;;;5033678;28;20060;-86
2021/05/09 08:00:21;;;;;;;4.00;1.80;;;20.50;99.90;;;;;;5031565;28;20036;-86
2021/05/09 08:02:49;;;;;;;3.50;1.90;;;20.50;99.90;;;;;;5030559;28;20029;-86
2021/05/09 08:05:16;;;;;;;3.20;1.90;;;20.60;99.90;;;;;;5031848;28;20021;-86
2021/05/09 08:07:55;;;;;;;2.40;1.70;;;20.60;99.90;;;;;;5031595;28;20052;-86
2021/05/09 08:10:22;;;;;;;4.88;1.67;;;20.70;99.90;;;;;;5031051;28;20040;-86
2021/05/09 08:12:49;;;;;;;3.30;2.17;;;20.90;99.90;;;;;;5033187;28;20033;-86
2021/05/09 08:15:16;;;;;;;3.35;1.83;;;21.00;99.90;;;;;;5029923;28;20029;-86
2021/05/09 08:17:42;;;;;;;3.65;1.40;;;21.10;99.90;;;;;;5030124;28;20111;-86
2021/05/09 08:20:09;;;;;;;3.45;1.75;;;21.00;99.90;;;;;;5030488;28;20029;-86
2021/05/09 08:22:35;;;;;;;2.92;1.95;;;21.00;99.90;;;;;;5015570;28;20022;-86
2021/05/09 08:25:01;;;;;;;4.78;1.50;;;21.10;99.90;;;;;;5032507;28;20037;-86
2021/05/09 08:27:29;;;;;;;6.93;2.17;;;21.10;99.90;;;;;;5030815;28;20040;-86
2021/05/09 08:29:55;;;;;;;3.17;1.95;;;21.30;99.90;;;;;;5030483;28;20038;-86
2021/05/09 08:32:21;;;;;;;1.70;1.60;;;21.40;99.90;;;;;;5030836;28;20394;-86
2021/05/09 08:34:47;;;;;;;2.78;1.60;;;21.50;99.90;;;;;;5029683;28;20502;-86
2021/05/09 08:37:12;;;;;;;3.55;1.60;;;21.50;99.90;;;;;;5032007;28;20030;-86
2021/05/09 08:39:39;;;;;;;1.83;1.60;;;21.70;99.90;;;;;;5031628;28;20033;-86
2021/05/09 08:42:08;;;;;;;2.70;1.63;;;22.00;99.90;;;;;;5030757;28;20014;-86
2021/05/09 08:44:34;;;;;;;4.78;1.67;;;22.00;99.90;;;;;;5031105;28;20021;-86
2021/05/09 08:47:02;;;;;;;2.92;1.38;;;21.90;99.90;;;;;;5030615;28;20037;-86
2021/05/09 08:49:29;;;;;;;2.55;1.70;;;21.80;99.90;;;;;;5031265;28;20033;-86
2021/05/09 08:51:55;;;;;;;3.85;1.83;;;21.90;99.90;;;;;;5032564;28;20021;-86
2021/05/09 08:54:21;;;;;;;2.80;1.50;;;21.90;99.90;;;;;;5030234;28;20026;-87
2021/05/09 08:56:47;;;;;;;4.15;1.83;;;21.80;99.90;;;;;;5030621;28;20033;-86
2021/05/09 08:59:12;;;;;;;2.83;1.25;;;22.00;99.90;;;;;;5031567;28;20032;-86
2021/05/09 09:01:40;;;;;;;3.20;1.60;;;21.90;99.90;;;;;;5030901;28;20030;-87
2021/05/09 09:04:06;;;;;;;3.97;1.77;;;22.20;99.90;;;;;;5032228;28;20042;-86
2021/05/09 09:06:47;;;;;;;1.83;1.38;;;22.20;99.90;;;;;;5030902;28;20040;-86
2021/05/09 09:09:23;;;;;;;3.70;1.80;;;22.10;99.90;;;;;;5030243;28;20190;-86
2021/05/09 09:11:56;;;;;;;3.40;1.40;;;22.00;99.90;;;;;;5029251;28;20048;-86
2021/05/09 09:14:26;;;;;;;4.13;1.60;;;22.00;99.90;;;;;;5030742;28;20022;-86
2021/05/09 09:17:15;;;;;;;3.95;1.73;;;22.30;99.90;;;;;;5030676;28;20390;-86
2021/05/09 09:20:03;;;;;;;5.53;2.03;;;22.10;99.90;;;;;;5016028;28;20033;-86
2021/05/09 09:22:57;;;;;;;3.75;1.50;;;22.10;99.90;;;;;;5030406;28;20041;-86
2021/05/09 09:25:28;;;;;;;1.92;1.48;;;22.10;99.90;;;;;;5028861;28;20034;-86
2021/05/09 09:27:55;;;;;;;2.45;1.70;;;22.00;99.90;;;;;;5032629;28;20029;-86
2021/05/09 09:30:23;;;;;;;2.35;1.50;;;22.30;99.90;;;;;;5030829;28;20035;-86
2021/05/09 09:33:11;;;;;;;2.85;1.50;;;22.30;99.90;;;;;;5030105;28;20505;-86
2021/05/09 09:35:38;;;;;;;2.22;1.50;;;22.50;99.90;;;;;;5030098;28;20048;-86
2021/05/09 09:38:29;;;;;;;4.45;1.67;;;22.70;99.90;;;;;;5028793;28;20071;-86
2021/05/09 09:41:07;;;;;;;2.95;2.00;;;23.00;99.90;;;;;;5017730;28;20584;-87
2021/05/09 09:43:32;;;;;;;2.67;1.70;;;23.30;99.90;;;;;;5030286;28;20038;-86
2021/05/09 09:45:58;;;;;;;2.67;1.35;;;23.10;99.90;;;;;;5031844;28;20461;-87
2021/05/09 09:48:38;;;;;;;2.58;1.40;;;23.30;99.90;;;;;;5030560;28;20367;-87
2021/05/09 09:51:04;;;;;;;3.88;1.50;;;23.40;99.90;;;;;;5028173;28;20036;-86
2021/05/09 09:53:39;;;;;;;1.45;1.20;;;23.20;99.90;;;;;;5027567;28;20029;-87
2021/05/09 09:56:06;;;;;;;4.03;1.50;;;23.00;99.90;;;;;;5030054;28;20502;-86
2021/05/09 09:58:53;;;;;;;2.40;1.50;;;23.20;99.90;;;;;;5029870;28;20033;-87
2021/05/09 10:01:21;;;;;;;3.63;1.50;;;23.50;99.90;;;;;;5028387;28;20033;-86
2021/05/09 10:03:47;;;;;;;2.92;1.40;;;23.70;99.90;;;;;;5029871;28;20026;-86
2021/05/09 10:06:14;;;;;;;4.07;1.40;;;23.80;99.90;;;;;;5029232;28;20245;-86
2021/05/09 10:08:40;;;;;;;2.88;1.58;;;24.10;99.90;;;;;;5030546;28;20056;-86
2021/05/09 10:11:07;;;;;;;3.75;1.50;;;24.30;99.90;;;;;;5029968;28;20132;-86
2021/05/09 10:13:33;;;;;;;5.70;1.65;;;24.50;99.90;;;;;;5029801;28;20030;-87
2021/05/09 10:16:00;;;;;;;2.85;1.63;;;24.30;99.90;;;;;;5033672;28;20022;-87
2021/05/09 10:18:26;;;;;;;4.20;1.70;;;24.30;99.90;;;;;;5032299;28;20036;-86
2021/05/09 10:20:53;;;;;;;2.20;1.40;;;24.30;99.90;;;;;;5032658;28;20033;-86
2021/05/09 10:23:19;;;;;;;4.57;1.60;;;24.50;99.90;;;;;;5034070;28;20036;-86
2021/05/09 10:25:58;;;;;;;2.10;1.42;;;24.60;99.90;;;;;;5033420;28;20034;-87
2021/05/09 10:28:41;;;;;;;1.85;1.35;;;24.70;99.90;;;;;;5033452;28;20075;-86
2021/05/09 10:31:07;;;;;;;3.15;1.55;;;24.90;99.90;;;;;;5031662;28;20065;-87
2021/05/09 10:33:51;;;;;;;3.35;1.65;;;24.80;99.90;;;;;;5033659;28;20450;-87
2021/05/09 10:36:22;;;;;;;3.35;1.80;;;24.30;99.90;;;;;;5032583;28;20524;-87
2021/05/09 10:39:16;;;;;;;2.28;1.70;;;24.40;99.90;;;;;;5033268;28;20104;-87
2021/05/09 10:41:54;;;;;;;3.83;1.90;;;24.30;99.90;;;;;;5033054;28;20013;-87
2021/05/09 10:44:38;;;;;;;5.32;1.95;;;24.50;99.90;;;;;;5032993;28;20398;-86
2021/05/09 10:47:05;;;;;;;3.13;1.70;;;24.70;99.90;;;;;;5032957;28;20083;-86
2021/05/09 10:49:32;;;;;;;2.03;1.40;;;24.90;99.90;;;;;;5033034;28;20031;-86
2021/05/09 10:51:57;;;;;;;2.47;1.70;;;24.50;99.90;;;;;;5035078;28;20037;-86
2021/05/09 10:54:25;;;;;;;3.30;1.80;;;24.80;99.90;;;;;;5032835;28;20080;-86
2021/05/09 10:56:52;;;;;;;4.38;1.83;;;24.90;99.90;;;;;;5031473;28;20375;-87
2021/05/09 10:59:18;;;;;;;2.28;2.08;;;25.20;99.90;;;;;;5033251;28;20025;-87
2021/05/09 11:01:44;;;;;;;5.57;2.10;;;25.50;99.90;;;;;;5029820;28;20030;-87
2021/05/09 11:04:14;;;;;;;2.53;1.58;;;25.50;99.90;;;;;;5033615;28;20433;-86
2021/05/09 11:06:47;;;;;;;2.58;1.73;;;25.70;99.90;;;;;;5034026;28;20068;-87
2021/05/09 11:09:39;;;;;;;2.35;1.60;;;26.40;99.90;;;;;;5033250;28;20371;-86
2021/05/09 11:12:06;;;;;;;4.57;2.25;;;27.90;99.90;;;;;;5032709;28;20030;-87
2021/05/09 11:14:32;;;;;;;3.78;1.45;;;29.50;99.90;;;;;;5032471;28;20152;-87
2021/05/09 11:17:07;;;;;;;4.35;1.75;;;29.20;99.90;;;;;;5032878;28;20432;-87
2021/05/09 11:19:37;;;;;;;2.42;1.60;;;29.40;99.90;;;;;;5031946;28;20079;-86
2021/05/09 11:22:03;;;;;;;1.33;1.23;;;29.50;99.90;;;;;;5030148;28;20026;-86
2021/05/09 11:24:31;;;;;;;4.03;1.90;;;28.80;99.90;;;;;;5032746;28;20103;-87
2021/05/09 11:26:59;;;;;;;2.70;1.60;;;29.30;99.90;;;;;;5032472;28;20034;-87
2021/05/09 11:29:28;;;;;;;2.53;1.63;;;29.30;99.90;;;;;;5032254;28;20033;-87
2021/05/09 11:32:13;;;;;;;6.20;1.73;;;29.90;99.90;;;;;;5031968;28;20048;-87
2021/05/09 11:34:47;;;;;;;5.03;1.73;;;29.20;99.90;;;;;;5014951;28;20029;-87
2021/05/09 11:37:13;;;;;;;3.25;1.55;;;29.70;99.90;;;;;;5033448;28;20028;-87
2021/05/09 11:39:39;;;;;;;4.95;1.83;;;30.10;99.90;;;;;;5033242;28;20485;-87
2021/05/09 11:42:17;;;;;;;4.07;1.73;;;30.00;99.90;;;;;;5032163;28;20494;-86
2021/05/09 11:44:46;;;;;;;2.72;1.60;;;29.10;99.90;;;;;;5031783;28;20029;-87
2021/05/09 11:47:11;;;;;;;3.78;1.50;;;29.00;99.90;;;;;;5031547;28;20075;-87
2021/05/09 11:49:39;;;;;;;3.50;1.63;;;29.50;99.90;;;;;;5032232;28;20026;-86
2021/05/09 11:52:19;;;;;;;4.80;1.90;;;30.60;99.90;;;;;;5034132;28;20052;-87
2021/05/09 11:54:57;;;;;;;5.40;1.83;;;32.20;99.90;;;;;;5033333;28;20041;-87
2021/05/09 11:57:28;;;;;;;2.78;1.73;;;31.60;99.90;;;;;;5031434;28;20038;-87
2021/05/09 12:00:07;;;;;;;2.45;1.38;;;31.00;99.90;;;;;;5032037;28;20175;-87
2021/05/09 12:02:35;;;;;;;3.97;1.65;;;30.60;99.90;;;;;;5030125;28;20018;-87
2021/05/09 12:05:13;;;;;;;2.95;1.40;;;30.70;99.90;;;;;;5030461;28;20034;-87
2021/05/09 12:07:55;;;;;;;5.05;2.30;;;29.70;99.90;;;;;;5016204;28;20037;-87
2021/05/09 12:10:29;;;;;;;4.00;1.88;;;29.00;99.90;;;;;;5031922;28;20067;-87
2021/05/09 12:13:05;;;;;;;3.08;1.70;;;28.70;99.90;;;;;;5032573;28;20029;-87
2021/05/09 12:15:36;;;;;;;3.47;1.70;;;28.20;99.90;;;;;;5032549;28;20091;-87
2021/05/09 12:18:03;;;;;;;2.10;1.58;;;27.90;99.90;;;;;;5031120;28;20051;-87
2021/05/09 12:20:36;;;;;;;3.03;1.80;;;27.00;99.90;;;;;;5031394;28;20026;-87
2021/05/09 12:23:07;;;;;;;2.00;1.60;;;26.80;99.90;;;;;;5031287;28;20032;-87
2021/05/09 12:25:45;;;;;;;4.40;1.52;;;26.70;99.90;;;;;;5030489;28;20085;-87
2021/05/09 12:28:20;;;;;;;4.60;1.70;;;26.40;99.90;;;;;;5029384;28;20037;-86
2021/05/09 12:30:49;;;;;;;2.92;1.60;;;27.10;99.90;;;;;;5032622;28;20112;-87
2021/05/09 12:33:33;;;;;;;7.15;2.13;;;27.40;99.90;;;;;;5031018;28;20406;-87
2021/05/09 12:36:09;;;;;;;5.95;2.00;;;27.80;99.90;;;;;;5030862;28;20022;-86
2021/05/09 12:38:35;;;;;;;2.78;1.63;;;27.70;99.90;;;;;;5030628;28;20489;-87
2021/05/09 12:41:00;;;;;;;3.35;1.92;;;28.20;99.90;;;;;;5031400;28;20025;-87
2021/05/09 12:43:39;;;;;;;5.38;2.08;;;27.80;99.90;;;;;;5031111;28;20081;-87
2021/05/09 12:46:05;;;;;;;2.83;1.88;;;27.70;99.90;;;;;;5028676;28;20037;-87
2021/05/09 12:48:31;;;;;;;2.85;1.65;;;29.00;99.90;;;;;;5030831;28;20040;-87
2021/05/09 12:50:57;;;;;;;7.22;1.73;;;30.60;99.90;;;;;;5029496;28;20036;-87